Time;durP1;ratioP1;P1;durP2;ratioP2;P2;SDS_P1;SDS_P2;PMS_P1;PMS_P2;Temp;Humidity;BMP_temperature;BMP_pressure;BME280_temperature;BME280_humidity;BME280_pressure;Samples;Min_cycle;Max_cycle;Signal;HPM_P1;HPM_P2
2022/09/20 00:02:13;;;;;;;;;;;;;;;12.24;100.00;100049.22;10508129;28;20012;-70
2022/09/20 00:07:17;;;;;;;;;;;;;;;12.27;100.00;100049.16;10507768;28;19925;-72
2022/09/20 00:12:20;;;;;;;;;;;;;;;12.16;100.00;100051.13;10506857;28;19988;-71
2022/09/20 00:17:23;;;;;;;;;;;;;;;12.16;100.00;100055.47;10507143;28;19930;-71
2022/09/20 00:22:27;;;;;;;;;;;;;;;12.21;100.00;100056.22;10506692;28;19943;-75
2022/09/20 00:27:30;;;;;;;;;;;;;;;12.21;100.00;100053.63;10506456;28;19977;-70
2022/09/20 00:32:33;;;;;;;;;;;;;;;12.20;100.00;100067.53;10506419;28;20023;-73
2022/09/20 00:37:38;;;;;;;;;;;;;;;12.08;100.00;100057.41;10506024;28;20015;-71
2022/09/20 00:42:41;;;;;;;;;;;;;;;12.03;100.00;100059.25;10517580;28;19924;-72
2022/09/20 00:47:47;;;;;;;;;;;;;;;12.08;100.00;100060.84;10507016;28;19985;-72
2022/09/20 00:52:54;;;;;;;;;;;;;;;11.96;100.00;100057.66;10519113;28;19924;-73
2022/09/20 00:57:58;;;;;;;;;;;;;;;12.03;100.00;100062.69;10547378;28;20383;-72
2022/09/20 01:03:04;;;;;;;;;;;;;;;11.95;100.00;100061.13;10547162;28;19924;-72
2022/09/20 01:08:08;;;;;;;;;;;;;;;11.85;100.00;100057.88;10547865;28;20306;-70
2022/09/20 01:13:11;;;;;;;;;;;;;;;11.88;100.00;100062.13;10510046;28;19932;-69
2022/09/20 01:18:16;;;;;;;;;;;;;;;11.89;100.00;100069.91;10504349;28;20353;-74
2022/09/20 01:23:25;;;;;;;;;;;;;;;11.99;100.00;100062.78;10504711;28;19928;-71
2022/09/20 01:28:30;;;;;;;;;;;;;;;11.99;100.00;100065.38;10504131;28;19931;-72
2022/09/20 01:33:37;;;;;;;;;;;;;;;11.89;100.00;100069.91;10504303;28;19932;-75
2022/09/20 01:38:44;;;;;;;;;;;;;;;11.91;100.00;100081.13;10502913;28;20365;-71
2022/09/20 01:43:51;;;;;;;;;;;;;;;11.82;100.00;100076.09;10503897;28;20265;-77
2022/09/20 01:48:58;;;;;;;;;;;;;;;11.84;100.00;100087.34;10503223;28;20019;-75
2022/09/20 01:54:18;;;;;;;;;;;;;;;11.68;100.00;100072.06;10503119;28;19924;-77
2022/09/20 01:59:39;;;;;;;;;;;;;;;11.75;100.00;100084.94;10503187;28;19924;-74
2022/09/20 02:05:09;;;;;;;;;;;;;;;11.69;100.00;100077.25;10502729;28;19931;-77
2022/09/20 02:10:24;;;;;;;;;;;;;;;11.65;100.00;100083.38;10479300;28;19924;-77
2022/09/20 02:15:36;;;;;;;;;;;;;;;11.78;100.00;100089.22;10502346;28;19935;-75
2022/09/20 02:20:45;;;;;;;;;;;;;;;11.69;100.00;100094.56;10502248;28;19981;-74
2022/09/20 02:26:02;;;;;;;;;;;;;;;11.75;100.00;100090.13;10502583;28;20019;-75
2022/09/20 02:31:13;;;;;;;;;;;;;;;11.74;100.00;100091.00;10503554;28;20015;-75
2022/09/20 02:36:21;;;;;;;;;;;;;;;11.78;100.00;100095.28;10501843;28;19977;-77
2022/09/20 02:41:48;;;;;;;;;;;;;;;11.75;100.00;100095.34;10501556;28;20011;-75
2022/09/20 02:46:55;;;;;;;;;;;;;;;11.63;100.00;100098.97;10500571;28;19981;-78
2022/09/20 02:52:04;;;;;;;;;;;;;;;11.59;100.00;100107.72;10501536;28;19977;-74
2022/09/20 02:57:14;;;;;;;;;;;;;;;11.61;100.00;100097.31;10501266;28;20281;-74
2022/09/20 03:02:24;;;;;;;;;;;;;;;11.69;100.00;100102.38;10500999;28;19932;-77
2022/09/20 03:07:34;;;;;;;;;;;;;;;11.58;100.00;100097.34;10501565;28;19925;-75
2022/09/20 03:12:43;;;;;;;;;;;;;;;11.65;100.00;100105.94;10500970;28;19935;-75
2022/09/20 03:17:50;;;;;;;;;;;;;;;11.70;100.00;100114.50;10500860;28;19934;-75
2022/09/20 03:22:58;;;;;;;;;;;;;;;11.79;100.00;100120.38;10500863;28;19938;-75
2022/09/20 03:28:06;;;;;;;;;;;;;;;11.74;100.00;100118.75;10501936;28;20024;-73
2022/09/20 03:33:15;;;;;;;;;;;;;;;11.69;100.00;100118.84;10501420;28;19924;-76
2022/09/20 03:38:28;;;;;;;;;;;;;;;11.82;100.00;100111.66;10500468;28;19946;-74
2022/09/20 03:43:37;;;;;;;;;;;;;;;11.84;100.00;100115.09;10501012;28;19925;-75
2022/09/20 03:48:53;;;;;;;;;;;;;;;11.77;100.00;100129.09;10500935;28;19958;-74
2022/09/20 03:54:08;;;;;;;;;;;;;;;11.81;100.00;100128.13;10500785;28;20015;-76
2022/09/20 03:59:19;;;;;;;;;;;;;;;11.83;100.00;100119.44;10502727;28;20341;-76
2022/09/20 04:04:28;;;;;;;;;;;;;;;11.90;100.00;100127.97;10192264;28;10000038;-74
2022/09/20 04:09:43;;;;;;;;;;;;;;;11.87;100.00;100134.09;10515676;28;19930;-76
2022/09/20 04:14:49;;;;;;;;;;;;;;;11.79;100.00;100138.56;10501455;28;19924;-75
2022/09/20 04:19:57;;;;;;;;;;;;;;;11.86;100.00;100136.72;10501051;28;19928;-74
2022/09/20 04:25:04;;;;;;;;;;;;;;;11.78;100.00;100151.59;10500871;28;20031;-76
2022/09/20 04:30:16;;;;;;;;;;;;;;;11.84;100.00;100154.13;10523206;28;20443;-78
2022/09/20 04:41:02;;;;;;;;;;;;;;;11.78;100.00;100156.81;10541590;28;19940;-76
2022/09/20 04:46:29;;;;;;;;;;;;;;;11.78;100.00;100162.88;10541879;28;19968;-76
2022/09/20 04:51:47;;;;;;;;;;;;;;;11.69;100.00;100173.44;10541878;28;19960;-75
2022/09/20 04:56:57;;;;;;;;;;;;;;;11.73;100.00;100182.03;10543090;28;19924;-76
2022/09/20 05:02:33;;;;;;;;;;;;;;;11.76;100.00;100179.38;10550620;28;20617;-73
2022/09/20 05:07:57;;;;;;;;;;;;;;;11.77;100.00;100188.91;10583659;28;20298;-74
2022/09/20 05:13:12;;;;;;;;;;;;;;;11.75;100.00;100208.88;10538431;28;20019;-73
2022/09/20 05:18:33;;;;;;;;;;;;;;;11.79;100.00;100213.09;10539931;28;20006;-74
2022/09/20 05:23:54;;;;;;;;;;;;;;;11.84;100.00;100216.53;10498173;28;20032;-72
2022/09/20 05:29:02;;;;;;;;;;;;;;;11.86;100.00;100228.59;10482682;28;19924;-74
2022/09/20 05:34:11;;;;;;;;;;;;;;;11.91;100.00;100226.75;10539556;28;20027;-72
2022/09/20 05:39:21;;;;;;;;;;;;;;;11.88;100.00;100224.22;10533477;28;19924;-73
2022/09/20 05:44:29;;;;;;;;;;;;;;;11.94;100.00;100215.47;10516099;28;19924;-76
2022/09/20 05:49:39;;;;;;;;;;;;;;;11.96;100.00;100224.09;10519628;28;19924;-76
2022/09/20 05:54:51;;;;;;;;;;;;;;;11.98;100.00;100237.91;10496926;28;19935;-73
2022/09/20 06:00:01;;;;;;;;;;;;;;;12.00;100.00;100239.63;10503273;28;20370;-78
2022/09/20 06:05:09;;;;;;;;;;;;;;;11.95;100.00;100238.84;10547555;28;20011;-73
2022/09/20 06:10:19;;;;;;;;;;;;;;;12.13;100.00;100237.66;10527727;28;20357;-74
2022/09/20 06:15:27;;;;;;;;;;;;;;;12.19;100.00;100242.72;10509022;28;19928;-75
2022/09/20 06:20:33;;;;;;;;;;;;;;;12.14;100.00;100249.78;10508601;28;19964;-73
2022/09/20 06:25:41;;;;;;;;;;;;;;;12.22;100.00;100250.47;10541140;28;19935;-75
2022/09/20 06:30:47;;;;;;;;;;;;;;;12.14;100.00;100262.78;10538185;28;19928;-76
2022/09/20 06:35:53;;;;;;;;;;;;;;;12.27;100.00;100266.88;10530841;28;19928;-76
2022/09/20 06:46:23;;;;;;;;;;;;;;;12.38;100.00;100275.34;10532407;28;20031;-71
2022/09/20 06:51:26;;;;;;;;;;;;;;;12.44;100.00;100278.69;10534238;28;19950;-73
2022/09/20 06:56:34;;;;;;;;;;;;;;;12.43;100.00;100281.31;10536083;28;20018;-71
2022/09/20 07:01:38;;;;;;;;;;;;;;;12.27;100.00;100287.72;10533568;28;19963;-71
2022/09/20 07:06:42;;;;;;;;;;;;;;;12.28;100.00;100295.47;10536426;28;19928;-71
2022/09/20 07:11:45;;;;;;;;;;;;;;;12.23;100.00;100291.25;10536054;28;19928;-71
2022/09/20 07:16:49;;;;;;;;;;;;;;;12.38;100.00;100297.03;10535669;28;20405;-76
2022/09/20 07:21:53;;;;;;;;;;;;;;;12.38;100.00;100307.44;10532150;28;19931;-75
2022/09/20 07:26:57;;;;;;;;;;;;;;;12.55;100.00;100307.13;10530967;28;20361;-74
2022/09/20 07:32:02;;;;;;;;;;;;;;;12.56;100.00;100316.66;10535754;28;20002;-77
2022/09/20 07:37:05;;;;;;;;;;;;;;;12.68;100.00;100327.69;10537765;28;20015;-73
2022/09/20 07:42:08;;;;;;;;;;;;;;;12.74;100.00;100321.50;10540724;28;20443;-73
2022/09/20 07:47:14;;;;;;;;;;;;;;;12.73;100.00;100330.22;10544629;28;20256;-74
2022/09/20 07:52:16;;;;;;;;;;;;;;;12.63;100.00;100341.69;10539649;28;19932;-77
2022/09/20 07:57:19;;;;;;;;;;;;;;;12.62;100.00;100348.63;10544921;28;19978;-77
2022/09/20 08:02:24;;;;;;;;;;;;;;;12.60;100.00;100349.53;10525242;28;19936;-77
2022/09/20 08:07:28;;;;;;;;;;;;;;;12.63;100.00;100354.72;10505986;28;19932;-70
2022/09/20 08:12:32;;;;;;;;;;;;;;;12.80;100.00;100342.22;10518147;28;19945;-73
2022/09/20 08:17:56;;;;;;;;;;;;;;;13.10;100.00;100354.66;10542592;28;19924;-76
2022/09/20 08:23:00;;;;;;;;;;;;;;;13.15;100.00;100342.41;10521784;28;19978;-74
2022/09/20 08:28:23;;;;;;;;;;;;;;;13.25;100.00;100348.28;10523963;28;20403;-75
2022/09/20 08:33:27;;;;;;;;;;;;;;;13.28;100.00;100359.50;10518074;28;20195;-76
2022/09/20 08:38:31;;;;;;;;;;;;;;;13.23;100.00;100358.75;10500411;28;19935;-74
2022/09/20 08:43:55;;;;;;;;;;;;;;;13.35;100.00;100362.84;10499729;28;19928;-73
2022/09/20 08:49:00;;;;;;;;;;;;;;;13.36;100.00;100359.31;10500079;28;19968;-73
2022/09/20 08:54:03;;;;;;;;;;;;;;;13.35;100.00;100363.72;10500029;28;19924;-69
2022/09/20 08:59:11;;;;;;;;;;;;;;;13.26;100.00;100371.72;10499923;28;19934;-69
2022/09/20 09:04:17;;;;;;;;;;;;;;;13.21;100.00;100370.94;10522103;28;19935;-72
2022/09/20 09:09:23;;;;;;;;;;;;;;;13.12;100.00;100376.34;10499027;28;19940;-75
2022/09/20 09:19:50;;;;;;;;;;;;;;;13.31;100.00;100375.06;10542396;28;19928;-75
2022/09/20 09:25:10;;;;;;;;;;;;;;;13.32;100.00;100375.94;10541321;28;19924;-76
2022/09/20 09:30:19;;;;;;;;;;;;;;;13.35;100.00;100379.34;10540957;28;19977;-80
2022/09/20 09:35:25;;;;;;;;;;;;;;;13.39;100.00;100385.34;10539559;28;19924;-78
2022/09/20 09:40:30;;;;;;;;;;;;;;;13.34;100.00;100379.38;10539891;28;19939;-78
2022/09/20 09:45:37;;;;;;;;;;;;;;;13.28;100.00;100388.19;10504892;28;19946;-79
2022/09/20 09:50:42;;;;;;;;;;;;;;;13.35;100.00;100389.78;10497293;28;19968;-76
2022/09/20 09:56:00;;;;;;;;;;;;;;;13.32;100.00;100396.81;10532093;28;19927;-79
2022/09/20 10:01:06;;;;;;;;;;;;;;;13.25;100.00;100387.38;10551532;28;19943;-75
2022/09/20 10:06:17;;;;;;;;;;;;;;;13.58;100.00;100387.50;10505176;28;19936;-76
2022/09/20 10:11:25;;;;;;;;;;;;;;;13.67;100.00;100395.16;10496380;28;20455;-77
2022/09/20 10:16:33;;;;;;;;;;;;;;;13.98;100.00;100400.53;10534722;28;19938;-77
2022/09/20 10:21:44;;;;;;;;;;;;;;;13.87;100.00;100400.75;10538825;28;20054;-67
2022/09/20 10:27:04;;;;;;;;;;;;;;;13.93;100.00;100393.72;10537893;28;19953;-76
2022/09/20 10:32:15;;;;;;;;;;;;;;;14.36;100.00;100394.41;10537423;28;20412;-79
2022/09/20 10:37:27;;;;;;;;;;;;;;;14.52;100.00;100395.75;10495091;28;20008;-82
2022/09/20 10:48:00;;;;;;;;;;;;;;;15.40;100.00;100383.75;10187636;28;10000329;-77
2022/09/20 10:53:16;;;;;;;;;;;;;;;16.00;100.00;100382.75;10539780;28;20003;-77
2022/09/20 10:58:37;;;;;;;;;;;;;;;15.72;100.00;100386.28;10543615;28;19924;-76
2022/09/20 11:03:56;;;;;;;;;;;;;;;15.73;99.42;100385.38;10532259;28;20408;-78
2022/09/20 11:09:02;;;;;;;;;;;;;;;15.75;97.55;100383.56;10502900;28;20040;-79
2022/09/20 11:14:06;;;;;;;;;;;;;;;15.49;98.16;100376.50;10522097;28;19951;-78
2022/09/20 11:19:13;;;;;;;;;;;;;;;15.74;97.70;100377.47;10551235;28;19935;-81
2022/09/20 11:24:26;;;;;;;;;;;;;;;15.54;98.21;100377.22;10519089;28;20361;-75
2022/09/20 11:29:34;;;;;;;;;;;;;;;15.50;95.70;100388.66;10491936;28;20015;-77
2022/09/20 11:34:39;;;;;;;;;;;;;;;15.42;95.44;100380.22;10524518;28;20251;-75
2022/09/20 11:39:47;;;;;;;;;;;;;;;15.52;95.39;100378.16;10550292;28;20234;-77
2022/09/20 11:44:51;;;;;;;;;;;;;;;15.42;95.70;100384.56;10550089;28;19931;-73
2022/09/20 11:50:07;;;;;;;;;;;;;;;15.30;96.77;100377.91;10550102;28;20417;-75
2022/09/20 11:55:37;;;;;;;;;;;;;;;15.38;96.43;100380.28;10549422;28;19973;-73
2022/09/20 12:00:44;;;;;;;;;;;;;;;15.43;96.16;100376.69;10513841;28;19932;-77
2022/09/20 12:05:55;;;;;;;;;;;;;;;15.51;93.07;100377.31;10526530;28;20023;-76
2022/09/20 12:11:00;;;;;;;;;;;;;;;15.72;92.09;100379.25;10507643;28;19925;-75
2022/09/20 12:16:07;;;;;;;;;;;;;;;15.78;90.88;100373.00;10530225;28;19974;-81
2022/09/20 12:21:11;;;;;;;;;;;;;;;15.59;90.00;100366.59;10548175;28;19928;-73
2022/09/20 12:26:32;;;;;;;;;;;;;;;16.97;85.83;100364.59;10548002;28;19970;-77
2022/09/20 12:31:47;;;;;;;;;;;;;;;18.50;78.57;100362.06;10548226;28;20018;-76
2022/09/20 12:37:05;;;;;;;;;;;;;;;18.11;77.20;100348.81;10193071;28;9999682;-76
2022/09/20 12:42:27;;;;;;;;;;;;;;;18.37;77.29;100350.34;10541376;28;19983;-78
2022/09/20 12:47:32;;;;;;;;;;;;;;;17.49;77.60;100345.19;10540772;28;19928;-76
2022/09/20 12:52:55;;;;;;;;;;;;;;;17.07;79.30;100357.25;10541565;28;20022;-77
2022/09/20 12:58:00;;;;;;;;;;;;;;;16.89;80.07;100350.91;10540429;28;19924;-77
2022/09/20 13:03:12;;;;;;;;;;;;;;;16.81;79.87;100344.22;10538415;28;20042;-71
2022/09/20 13:08:19;;;;;;;;;;;;;;;16.61;79.41;100354.56;10540310;28;20307;-73
2022/09/20 13:13:27;;;;;;;;;;;;;;;16.43;79.53;100355.16;10539477;28;19934;-71
2022/09/20 13:18:33;;;;;;;;;;;;;;;16.28;80.29;100363.50;10537824;28;19935;-72
2022/09/20 13:23:44;;;;;;;;;;;;;;;16.14;81.38;100367.44;10541071;28;19928;-70
2022/09/20 13:28:50;;;;;;;;;;;;;;;16.03;83.55;100384.44;10530961;28;19928;-71
2022/09/20 13:33:54;;;;;;;;;;;;;;;15.87;84.25;100386.66;10530556;28;19924;-74
2022/09/20 13:38:58;;;;;;;;;;;;;;;15.73;83.56;100394.09;10502359;28;19925;-74
2022/09/20 13:44:01;;;;;;;;;;;;;;;15.61;82.71;100399.69;10503257;28;19952;-72
2022/09/20 13:49:16;;;;;;;;;;;;;;;15.44;82.67;100415.03;10502799;28;20014;-71
2022/09/20 13:54:21;;;;;;;;;;;;;;;15.15;82.14;100428.03;10503235;28;19924;-72
2022/09/20 13:59:25;;;;;;;;;;;;;;;14.90;85.26;100425.22;10544344;28;20005;-74
2022/09/20 14:04:31;;;;;;;;;;;;;;;14.72;90.54;100411.78;10544380;28;20011;-75
2022/09/20 14:09:37;;;;;;;;;;;;;;;14.51;91.81;100407.94;10528191;28;19932;-75
2022/09/20 14:14:40;;;;;;;;;;;;;;;14.38;92.97;100400.47;10544042;28;19924;-75
2022/09/20 14:19:47;;;;;;;;;;;;;;;14.42;93.86;100399.50;10543587;28;19967;-74
2022/09/20 14:24:58;;;;;;;;;;;;;;;14.36;95.56;100399.63;10543226;28;19924;-72
2022/09/20 14:30:03;;;;;;;;;;;;;;;14.40;96.85;100393.44;10543597;28;20213;-69
2022/09/20 14:35:14;;;;;;;;;;;;;;;14.45;99.70;100397.66;10542570;28;20242;-72
2022/09/20 14:40:22;;;;;;;;;;;;;;;14.61;99.39;100395.53;10543257;28;20011;-74
2022/09/20 14:45:27;;;;;;;;;;;;;;;14.72;100.00;100394.34;10542849;28;19924;-73
2022/09/20 14:50:32;;;;;;;;;;;;;;;14.78;100.00;100398.53;10543055;28;19952;-77
2022/09/20 14:55:36;;;;;;;;;;;;;;;14.87;100.00;100403.53;10534687;28;19935;-76
2022/09/20 15:00:47;;;;;;;;;;;;;;;14.90;100.00;100420.00;10539435;28;19981;-76
2022/09/20 15:05:51;;;;;;;;;;;;;;;14.74;100.00;100444.81;10541143;28;19924;-75
2022/09/20 15:10:54;;;;;;;;;;;;;;;14.69;100.00;100446.69;10539858;28;19952;-75
2022/09/20 15:15:58;;;;;;;;;;;;;;;14.71;98.49;100450.13;10541530;28;19931;-75
2022/09/20 15:21:02;;;;;;;;;;;;;;;14.65;99.53;100449.41;10539230;28;19967;-74
2022/09/20 15:26:06;;;;;;;;;;;;;;;14.51;98.92;100452.34;10542338;28;19932;-75
2022/09/20 15:31:09;;;;;;;;;;;;;;;14.37;100.00;100449.22;10536538;28;20007;-75
2022/09/20 15:36:14;;;;;;;;;;;;;;;14.27;100.00;100452.09;10541830;28;20301;-75
2022/09/20 15:41:17;;;;;;;;;;;;;;;14.30;100.00;100460.72;10542073;28;20345;-73
2022/09/20 15:46:21;;;;;;;;;;;;;;;14.27;100.00;100473.81;10520299;28;20020;-74
2022/09/20 15:51:26;;;;;;;;;;;;;;;14.16;100.00;100483.63;10526438;28;20019;-75
2022/09/20 15:56:30;;;;;;;;;;;;;;;14.05;100.00;100479.56;10546903;28;19924;-75
2022/09/20 16:01:36;;;;;;;;;;;;;;;13.89;100.00;100474.66;10549533;28;19928;-75
2022/09/20 16:06:42;;;;;;;;;;;;;;;13.88;100.00;100477.28;10550032;28;19935;-72
2022/09/20 16:11:45;;;;;;;;;;;;;;;13.89;100.00;100479.88;10549572;28;19936;-76
2022/09/20 16:16:48;;;;;;;;;;;;;;;13.84;100.00;100483.47;10548860;28;20012;-73
2022/09/20 16:21:55;;;;;;;;;;;;;;;13.77;100.00;100474.91;10548713;28;20080;-66
2022/09/20 16:27:02;;;;;;;;;;;;;;;13.72;100.00;100487.19;10196159;28;10000493;-76
2022/09/20 16:32:06;;;;;;;;;;;;;;;13.73;100.00;100483.72;10544391;28;19959;-75
2022/09/20 16:37:14;;;;;;;;;;;;;;;13.64;100.00;100478.69;10544928;28;19939;-70
2022/09/20 16:42:19;;;;;;;;;;;;;;;13.55;100.00;100476.25;10542115;28;20364;-77
2022/09/20 16:47:24;;;;;;;;;;;;;;;13.60;100.00;100481.38;10540895;28;19928;-76
2022/09/20 16:52:29;;;;;;;;;;;;;;;13.64;100.00;100494.34;10542193;28;19960;-76
2022/09/20 16:57:32;;;;;;;;;;;;;;;13.58;100.00;100496.22;10541325;28;20031;-75
2022/09/20 17:02:35;;;;;;;;;;;;;;;13.54;100.00;100508.44;10540727;28;20374;-77
2022/09/20 17:07:41;;;;;;;;;;;;;;;13.54;100.00;100518.88;10540300;28;20084;-76
2022/09/20 17:12:46;;;;;;;;;;;;;;;13.49;100.00;100518.13;10541408;28;19981;-76
2022/09/20 17:17:49;;;;;;;;;;;;;;;13.40;100.00;100523.50;10540373;28;19971;-72
2022/09/20 17:22:54;;;;;;;;;;;;;;;13.41;100.00;100527.81;10540330;28;20352;-69
2022/09/20 17:27:58;;;;;;;;;;;;;;;13.35;100.00;100535.75;10558019;28;19927;-71
2022/09/20 17:33:02;;;;;;;;;;;;;;;13.29;100.00;100537.59;10582175;28;19935;-70
2022/09/20 17:38:06;;;;;;;;;;;;;;;13.21;100.00;100547.31;10582341;28;19966;-73
2022/09/20 17:43:10;;;;;;;;;;;;;;;13.25;100.00;100549.00;10581710;28;19985;-70
2022/09/20 17:48:13;;;;;;;;;;;;;;;13.24;100.00;100552.47;10581561;28;19981;-71
2022/09/20 17:53:17;;;;;;;;;;;;;;;13.15;100.00;100557.88;10581621;28;19927;-72
2022/09/20 17:58:20;;;;;;;;;;;;;;;13.33;100.00;100562.72;10582571;28;20352;-70
2022/09/20 18:03:24;;;;;;;;;;;;;;;13.35;100.00;100567.03;10583344;28;19923;-71
2022/09/20 18:08:28;;;;;;;;;;;;;;;13.34;100.00;100570.53;10582712;28;19956;-72
2022/09/20 18:13:31;;;;;;;;;;;;;;;13.28;100.00;100570.66;10580885;28;19927;-72
2022/09/20 18:18:34;;;;;;;;;;;;;;;13.37;100.00;100580.06;10580506;28;19928;-68
2022/09/20 18:23:39;;;;;;;;;;;;;;;13.30;100.00;100578.44;10580881;28;20019;-68
2022/09/20 18:28:42;;;;;;;;;;;;;;;13.27;100.00;100584.56;10555817;28;20436;-71
2022/09/20 18:33:52;;;;;;;;;;;;;;;13.16;100.00;100585.63;10537605;28;20010;-70
2022/09/20 18:38:58;;;;;;;;;;;;;;;13.18;100.00;100595.16;10537817;28;19940;-73
2022/09/20 18:44:02;;;;;;;;;;;;;;;13.23;100.00;100598.53;10526622;28;19997;-72
2022/09/20 18:49:08;;;;;;;;;;;;;;;13.18;100.00;100608.19;10524933;28;20029;-74
2022/09/20 18:54:13;;;;;;;;;;;;;;;13.21;100.00;100608.13;10510818;28;19982;-72
2022/09/20 18:59:18;;;;;;;;;;;;;;;13.19;100.00;100612.50;10480268;28;20017;-74
2022/09/20 19:04:26;;;;;;;;;;;;;;;13.13;100.00;100609.97;10536763;28;19967;-69
2022/09/20 19:09:34;;;;;;;;;;;;;;;13.13;100.00;100620.41;10537795;28;19963;-77
2022/09/20 19:14:42;;;;;;;;;;;;;;;13.12;100.00;100617.84;10536219;28;20058;-72
2022/09/20 19:19:50;;;;;;;;;;;;;;;12.99;100.00;100614.56;10531041;28;20047;-65
2022/09/20 19:25:03;;;;;;;;;;;;;;;12.93;100.00;100622.44;10494759;28;19928;-66
2022/09/20 19:30:07;;;;;;;;;;;;;;;12.80;100.00;100624.38;10567944;28;19951;-68
2022/09/20 19:35:17;;;;;;;;;;;;;;;12.91;100.00;100625.97;10587507;28;19954;-71
2022/09/20 19:40:25;;;;;;;;;;;;;;;13.05;100.00;100626.63;10588733;28;19931;-73
2022/09/20 19:45:31;;;;;;;;;;;;;;;13.14;100.00;100632.56;10531334;28;19974;-70
2022/09/20 19:50:38;;;;;;;;;;;;;;;13.16;100.00;100628.19;10505123;28;19939;-72
2022/09/20 19:55:45;;;;;;;;;;;;;;;13.21;100.00;100631.59;10523235;28;20010;-70
2022/09/20 20:00:49;;;;;;;;;;;;;;;13.18;100.00;100634.25;10511085;28;20015;-73
2022/09/20 20:05:54;;;;;;;;;;;;;;;13.15;100.00;100639.50;10518508;28;20023;-72
2022/09/20 20:11:02;;;;;;;;;;;;;;;13.12;100.00;100642.16;10543667;28;20367;-72
2022/09/20 20:16:07;;;;;;;;;;;;;;;13.18;100.00;100643.81;10525780;28;20048;-72
2022/09/20 20:21:13;;;;;;;;;;;;;;;13.15;100.00;100639.50;10530660;28;19924;-71
2022/09/20 20:26:19;;;;;;;;;;;;;;;13.08;100.00;100650.91;10507199;28;19959;-73
2022/09/20 20:31:22;;;;;;;;;;;;;;;13.09;100.00;100657.84;10568499;28;20629;-74
2022/09/20 20:36:25;;;;;;;;;;;;;;;13.04;100.00;100654.47;10527844;28;19929;-72
2022/09/20 20:41:31;;;;;;;;;;;;;;;13.00;100.00;100663.16;10500413;28;19981;-71
2022/09/20 20:46:36;;;;;;;;;;;;;;;12.97;100.00;100658.00;10516008;28;20030;-73
2022/09/20 20:51:39;;;;;;;;;;;;;;;12.97;100.00;100655.41;10541625;28;19924;-73
2022/09/20 20:56:43;;;;;;;;;;;;;;;12.81;100.00;100659.09;10542572;28;20007;-71
2022/09/20 21:01:46;;;;;;;;;;;;;;;12.83;100.00;100659.94;10541799;28;20312;-73
2022/09/20 21:06:49;;;;;;;;;;;;;;;12.84;100.00;100658.22;10540938;28;20369;-72
2022/09/20 21:11:54;;;;;;;;;;;;;;;12.74;100.00;100660.06;10540898;28;19928;-71
2022/09/20 21:16:57;;;;;;;;;;;;;;;12.66;100.00;100668.00;10541757;28;19934;-72
2022/09/20 21:22:00;;;;;;;;;;;;;;;12.70;100.00;100674.03;10542769;28;19928;-71
2022/09/20 21:27:04;;;;;;;;;;;;;;;12.70;100.00;100671.44;10552463;28;20042;-75
2022/09/20 21:32:08;;;;;;;;;;;;;;;12.72;100.00;100667.91;10583133;28;19924;-70
2022/09/20 21:37:11;;;;;;;;;;;;;;;12.73;100.00;100673.97;10545718;28;20011;-70
2022/09/20 21:42:15;;;;;;;;;;;;;;;12.68;100.00;100676.63;10538779;28;19934;-71
2022/09/20 21:47:19;;;;;;;;;;;;;;;12.57;100.00;100678.53;10534345;28;20396;-73
2022/09/20 21:52:22;;;;;;;;;;;;;;;12.57;100.00;100685.47;10513588;28;19935;-70
2022/09/20 21:57:27;;;;;;;;;;;;;;;12.53;100.00;100686.38;10534062;28;20014;-70
2022/09/20 22:02:30;;;;;;;;;;;;;;;12.47;100.00;100683.88;10538884;28;20412;-69
2022/09/20 22:07:34;;;;;;;;;;;;;;;12.49;100.00;100692.53;10538660;28;20316;-70
2022/09/20 22:12:38;;;;;;;;;;;;;;;12.47;100.00;100689.09;10539135;28;19940;-70
2022/09/20 22:17:41;;;;;;;;;;;;;;;12.44;100.00;100695.19;10538503;28;19924;-71
2022/09/20 22:22:44;;;;;;;;;;;;;;;12.37;100.00;100709.16;10538411;28;19924;-71
2022/09/20 22:27:48;;;;;;;;;;;;;;;12.30;100.00;100704.91;10554350;28;20022;-65
2022/09/20 22:32:51;;;;;;;;;;;;;;;12.24;100.00;100688.50;10579877;28;20370;-65
2022/09/20 22:37:55;;;;;;;;;;;;;;;12.16;100.00;100692.94;10579813;28;19934;-63
2022/09/20 22:43:00;;;;;;;;;;;;;;;12.15;100.00;100692.06;10579687;28;20018;-64
2022/09/20 22:48:03;;;;;;;;;;;;;;;12.14;100.00;100692.06;10579571;28;19932;-64
2022/09/20 22:53:06;;;;;;;;;;;;;;;12.12;100.00;100686.03;10581913;28;20011;-63
2022/09/20 22:58:10;;;;;;;;;;;;;;;12.17;100.00;100686.84;10581036;28;20268;-70
2022/09/20 23:03:13;;;;;;;;;;;;;;;12.23;100.00;100687.66;10579421;28;20378;-66
2022/09/20 23:08:16;;;;;;;;;;;;;;;12.18;100.00;100683.38;10578909;28;19934;-67
2022/09/20 23:13:20;;;;;;;;;;;;;;;12.21;100.00;100676.38;10578777;28;19928;-67
2022/09/20 23:18:24;;;;;;;;;;;;;;;12.18;100.00;100691.19;10578857;28;20021;-68
2022/09/20 23:23:27;;;;;;;;;;;;;;;12.10;100.00;100691.25;10578706;28;19927;-65
2022/09/20 23:28:31;;;;;;;;;;;;;;;12.11;100.00;100692.13;10556896;28;19924;-67
2022/09/20 23:33:34;;;;;;;;;;;;;;;12.09;100.00;100699.06;10536552;28;19924;-69
2022/09/20 23:38:37;;;;;;;;;;;;;;;12.13;100.00;100695.56;10537073;28;19924;-68
2022/09/20 23:43:41;;;;;;;;;;;;;;;12.15;100.00;100705.06;10536860;28;19939;-65
2022/09/20 23:48:44;;;;;;;;;;;;;;;12.17;100.00;100702.44;10536180;28;20337;-69
2022/09/20 23:53:48;;;;;;;;;;;;;;;12.19;100.00;100701.56;10539773;28;19924;-71
2022/09/20 23:58:52;;;;;;;;;;;;;;;12.21;100.00;100701.53;10542885;28;19924;-69
